createdAt,value
2022-11-26T00:00:59.432Z,85.80
2022-11-26T00:02:22.847Z,86.00
2022-11-26T00:03:43.743Z,86.00
2022-11-26T00:05:04.975Z,86.10
2022-11-26T00:06:29.188Z,86.40
2022-11-26T00:07:54.926Z,86.60
2022-11-26T00:09:18.067Z,86.70
2022-11-26T00:10:38.904Z,86.60
2022-11-26T00:11:59.545Z,86.40
2022-11-26T00:13:21.821Z,86.30
2022-11-26T00:14:42.285Z,86.40
2022-11-26T00:16:03.154Z,86.30
2022-11-26T00:17:23.748Z,86.70
2022-11-26T00:18:44.476Z,86.50
2022-11-26T00:20:06.257Z,86.60
2022-11-26T00:21:26.855Z,86.50
2022-11-26T00:22:49.801Z,86.60
2022-11-26T00:24:24.061Z,86.60
2022-11-26T00:25:46.638Z,86.70
2022-11-26T00:27:09.901Z,86.50
2022-11-26T00:28:32.097Z,86.80
2022-11-26T00:29:52.986Z,86.60
2022-11-26T00:31:15.879Z,86.40
2022-11-26T00:32:36.648Z,86.30
2022-11-26T00:33:57.232Z,86.30
2022-11-26T00:35:18.214Z,86.40
2022-11-26T00:36:38.801Z,86.60
2022-11-26T00:37:59.501Z,86.80
2022-11-26T00:39:23.772Z,86.50
2022-11-26T00:40:44.293Z,86.90
2022-11-26T00:42:05.423Z,87.20
2022-11-26T00:43:25.757Z,87.40
2022-11-26T00:44:46.264Z,87.30
2022-11-26T00:46:10.415Z,87.00
2022-11-26T00:47:31.357Z,87.10
2022-11-26T00:48:51.723Z,86.90
2022-11-26T00:50:17.978Z,87.00
2022-11-26T00:51:38.763Z,87.00
2022-11-26T00:52:59.157Z,87.00
2022-11-26T00:54:21.869Z,87.20
2022-11-26T00:55:44.668Z,87.20
2022-11-26T00:57:05.377Z,87.20
2022-11-26T00:58:28.421Z,87.20
2022-11-26T00:59:48.651Z,87.40
2022-11-26T01:01:11.526Z,87.30
2022-11-26T01:02:32.258Z,87.40
2022-11-26T01:03:53.150Z,87.40
2022-11-26T01:05:13.812Z,87.50
2022-11-26T01:06:35.751Z,87.60
2022-11-26T01:07:58.753Z,87.60
2022-11-26T01:09:22.059Z,87.50
2022-11-26T01:10:42.341Z,87.40
2022-11-26T01:12:02.622Z,87.50
2022-11-26T01:13:23.428Z,87.60
2022-11-26T01:14:43.890Z,87.80
2022-11-26T01:16:12.290Z,87.90
2022-11-26T01:17:33.047Z,88.10
2022-11-26T01:18:56.359Z,88.30
2022-11-26T01:20:27.703Z,88.30
2022-11-26T01:21:48.063Z,88.50
2022-11-26T01:23:11.000Z,88.70
2022-11-26T01:24:32.985Z,88.80
2022-11-26T01:25:53.484Z,88.80
2022-11-26T01:27:14.212Z,88.70
2022-11-26T01:28:35.012Z,88.90
2022-11-26T01:29:55.646Z,88.80
2022-11-26T01:31:17.596Z,88.70
2022-11-26T01:32:38.291Z,88.70
2022-11-26T01:33:58.607Z,88.60
2022-11-26T01:35:21.123Z,88.50
2022-11-26T01:36:41.855Z,88.70
2022-11-26T01:38:02.544Z,88.80
2022-11-26T01:39:23.840Z,88.70
2022-11-26T01:41:01.831Z,89.00
2022-11-26T01:42:25.475Z,89.00
2022-11-26T01:43:48.088Z,88.90
2022-11-26T01:45:15.431Z,89.00
2022-11-26T01:46:37.063Z,88.80
2022-11-26T01:47:57.324Z,88.80
2022-11-26T01:49:19.563Z,88.80
2022-11-26T01:50:52.852Z,88.80
2022-11-26T01:52:17.763Z,89.00
2022-11-26T01:53:46.885Z,89.10
2022-11-26T01:55:10.519Z,89.00
2022-11-26T01:56:35.921Z,89.00
2022-11-26T01:57:56.764Z,89.10
2022-11-26T01:59:19.850Z,89.00
2022-11-26T02:00:41.229Z,89.00
2022-11-26T02:02:02.126Z,88.90
2022-11-26T02:03:23.338Z,89.00
2022-11-26T02:04:50.548Z,89.00
2022-11-26T02:06:15.569Z,88.90
2022-11-26T02:07:37.068Z,89.00
2022-11-26T02:08:59.207Z,88.90
2022-11-26T02:10:20.064Z,88.90
2022-11-26T02:11:42.239Z,89.00
2022-11-26T02:13:03.325Z,89.00
2022-11-26T02:14:26.178Z,89.00
2022-11-26T02:15:52.416Z,89.20
2022-11-26T02:17:20.559Z,89.20
2022-11-26T02:18:46.404Z,89.30
2022-11-26T02:20:46.104Z,89.20
2022-11-26T02:22:17.099Z,89.10
2022-11-26T02:24:09.140Z,88.90
2022-11-26T02:25:39.621Z,89.00
2022-11-26T02:27:14.683Z,88.90
2022-11-26T02:28:48.550Z,89.00
2022-11-26T02:30:11.639Z,89.00
2022-11-26T02:31:36.187Z,88.80
2022-11-26T02:33:00.166Z,88.80
2022-11-26T02:34:25.176Z,88.60
2022-11-26T02:35:47.544Z,88.60
2022-11-26T02:37:10.971Z,88.80
2022-11-26T02:38:32.281Z,88.70
2022-11-26T02:39:53.066Z,88.90
2022-11-26T02:41:13.567Z,89.00
2022-11-26T02:42:35.261Z,89.00
2022-11-26T02:43:55.793Z,89.00
2022-11-26T02:45:19.649Z,89.00
2022-11-26T02:46:41.918Z,89.20
2022-11-26T02:48:03.916Z,89.20
2022-11-26T02:49:25.404Z,89.30
2022-11-26T02:50:48.247Z,89.30
2022-11-26T02:52:09.914Z,89.30
2022-11-26T02:53:33.671Z,89.50
2022-11-26T02:54:55.682Z,89.50
2022-11-26T02:56:20.554Z,89.30
2022-11-26T02:57:45.195Z,89.40
2022-11-26T02:59:06.110Z,89.30
2022-11-26T03:00:28.010Z,89.40
2022-11-26T03:01:51.895Z,89.40
2022-11-26T03:03:14.560Z,89.40
2022-11-26T03:04:39.366Z,89.60
2022-11-26T03:06:05.175Z,89.50
2022-11-26T03:07:26.347Z,89.90
2022-11-26T03:08:47.247Z,89.70
2022-11-26T03:10:08.414Z,89.70
2022-11-26T03:11:28.784Z,89.60
2022-11-26T03:12:49.261Z,89.60
2022-11-26T03:14:09.961Z,89.60
2022-11-26T03:15:31.868Z,89.50
2022-11-26T03:16:52.515Z,89.70
2022-11-26T03:18:13.392Z,89.80
2022-11-26T03:19:33.999Z,89.90
2022-11-26T03:20:54.262Z,89.90
2022-11-26T03:22:15.329Z,89.90
2022-11-26T03:23:35.926Z,89.90
2022-11-26T03:24:56.581Z,89.80
2022-11-26T03:26:16.944Z,89.80
2022-11-26T03:27:37.744Z,89.90
2022-11-26T03:28:58.164Z,89.90
2022-11-26T03:30:18.850Z,89.80
2022-11-26T03:31:40.576Z,89.80
2022-11-26T03:33:01.008Z,89.70
2022-11-26T03:34:21.823Z,89.70
2022-11-26T03:35:42.274Z,89.70
2022-11-26T03:37:02.469Z,89.90
2022-11-26T03:38:22.922Z,89.80
2022-11-26T03:39:43.599Z,89.90
2022-11-26T03:41:05.453Z,89.90
2022-11-26T03:42:26.264Z,89.90
2022-11-26T03:43:46.804Z,89.80
2022-11-26T03:45:08.086Z,89.90
2022-11-26T03:46:28.676Z,89.90
2022-11-26T03:47:50.526Z,89.90
2022-11-26T03:49:10.920Z,89.90
2022-11-26T03:50:31.281Z,89.90
2022-11-26T03:51:52.083Z,89.90
2022-11-26T03:53:12.630Z,89.80
2022-11-26T03:54:33.281Z,89.90
2022-11-26T03:55:54.028Z,89.90
2022-11-26T03:57:14.994Z,89.90
2022-11-26T03:58:36.005Z,89.90
2022-11-26T03:59:56.514Z,89.80
2022-11-26T04:01:17.071Z,89.90
2022-11-26T04:02:37.892Z,89.90
2022-11-26T04:03:59.969Z,89.90
2022-11-26T04:05:20.986Z,89.80
2022-11-26T04:06:41.575Z,89.70
2022-11-26T04:08:02.088Z,89.70
2022-11-26T04:09:22.685Z,89.50
2022-11-26T04:10:43.180Z,89.70
2022-11-26T04:12:04.194Z,89.70
2022-11-26T04:13:24.771Z,89.80
2022-11-26T04:14:45.328Z,89.90
2022-11-26T04:16:06.584Z,89.90
2022-11-26T04:17:27.122Z,89.90
2022-11-26T04:18:48.030Z,89.90
2022-11-26T04:20:10.967Z,89.90
2022-11-26T04:21:31.428Z,89.90
2022-11-26T04:22:51.843Z,89.60
2022-11-26T04:24:12.375Z,89.50
2022-11-26T04:25:33.036Z,89.50
2022-11-26T04:26:53.480Z,89.40
2022-11-26T04:28:13.970Z,89.50
2022-11-26T04:29:34.237Z,89.30
2022-11-26T04:30:54.552Z,89.30
2022-11-26T04:32:15.482Z,89.30
2022-11-26T04:33:35.761Z,89.40
2022-11-26T04:34:56.196Z,89.40
2022-11-26T04:36:18.330Z,89.30
2022-11-26T04:37:38.838Z,89.60
2022-11-26T04:38:59.494Z,89.70
2022-11-26T04:40:19.973Z,89.80
2022-11-26T04:41:40.519Z,89.70
2022-11-26T04:43:01.240Z,89.60
2022-11-26T04:44:22.545Z,89.90
2022-11-26T04:45:43.037Z,89.90
2022-11-26T04:47:03.712Z,89.90
2022-11-26T04:48:24.271Z,89.90
2022-11-26T04:49:44.876Z,89.90
2022-11-26T04:51:05.805Z,89.90
2022-11-26T04:52:27.486Z,89.90
2022-11-26T04:53:48.135Z,89.90
2022-11-26T04:55:09.213Z,89.90
2022-11-26T04:56:29.643Z,89.90
2022-11-26T04:57:50.251Z,89.90
2022-11-26T04:59:10.990Z,89.90
2022-11-26T05:00:31.816Z,89.80
2022-11-26T05:01:52.434Z,89.90
2022-11-26T05:03:13.114Z,89.90
2022-11-26T05:04:33.812Z,89.90
2022-11-26T05:05:54.541Z,89.90
2022-11-26T05:07:15.066Z,89.90
2022-11-26T05:08:36.948Z,89.90
2022-11-26T05:09:57.464Z,89.90
2022-11-26T05:11:18.227Z,89.90
2022-11-26T05:12:39.216Z,89.90
2022-11-26T05:13:59.794Z,89.90
2022-11-26T05:15:20.633Z,89.90
2022-11-26T05:16:41.479Z,89.90
2022-11-26T05:18:02.214Z,89.80
2022-11-26T05:19:22.737Z,89.70
2022-11-26T05:20:43.266Z,89.60
2022-11-26T05:22:03.543Z,89.60
2022-11-26T05:23:24.333Z,89.60
2022-11-26T05:24:46.136Z,89.70
2022-11-26T05:26:06.781Z,89.70
2022-11-26T05:27:27.256Z,89.50
2022-11-26T05:28:47.584Z,89.50
2022-11-26T05:30:09.056Z,89.50
2022-11-26T05:31:29.346Z,89.50
2022-11-26T05:32:49.587Z,89.60
2022-11-26T05:34:10.288Z,89.80
2022-11-26T05:35:30.792Z,89.80
2022-11-26T05:36:50.972Z,89.90
2022-11-26T05:38:11.831Z,89.70
2022-11-26T05:39:32.528Z,89.70
2022-11-26T05:40:54.509Z,89.70
2022-11-26T05:42:15.018Z,89.70
2022-11-26T05:43:35.360Z,89.90
2022-11-26T05:44:56.159Z,89.90
2022-11-26T05:46:17.007Z,89.90
2022-11-26T05:47:37.675Z,89.90
2022-11-26T05:48:58.252Z,89.90
2022-11-26T05:50:18.908Z,89.90
2022-11-26T05:51:39.535Z,89.90
2022-11-26T05:53:00.162Z,89.90
2022-11-26T05:54:20.878Z,89.90
2022-11-26T05:55:41.470Z,89.90
2022-11-26T05:57:03.492Z,89.90
2022-11-26T05:58:24.230Z,89.90
2022-11-26T05:59:44.857Z,89.90
2022-11-26T06:01:07.609Z,89.90
2022-11-26T06:02:28.887Z,89.90
2022-11-26T06:03:49.614Z,89.90
2022-11-26T06:05:10.409Z,89.90
2022-11-26T06:06:30.756Z,89.90
2022-11-26T06:07:51.419Z,89.90
2022-11-26T06:09:12.036Z,89.90
2022-11-26T06:10:32.672Z,89.90
2022-11-26T06:11:53.221Z,89.90
2022-11-26T06:13:14.932Z,89.90
2022-11-26T06:14:39.119Z,89.90
2022-11-26T06:16:02.504Z,89.90
2022-11-26T06:17:23.238Z,89.90
2022-11-26T06:18:43.566Z,89.90
2022-11-26T06:20:05.688Z,89.90
2022-11-26T06:21:26.353Z,89.90
2022-11-26T06:22:47.284Z,89.90
2022-11-26T06:24:08.112Z,89.90
2022-11-26T06:25:28.786Z,89.90
2022-11-26T06:26:49.187Z,89.90
2022-11-26T06:28:09.957Z,89.90
2022-11-26T06:29:32.424Z,89.90
2022-11-26T06:30:53.085Z,89.90
2022-11-26T06:32:13.448Z,89.90
2022-11-26T06:33:35.103Z,89.90
2022-11-26T06:34:55.706Z,89.90
2022-11-26T06:36:16.138Z,89.90
2022-11-26T06:37:37.024Z,89.90
2022-11-26T06:38:57.419Z,89.90
2022-11-26T06:40:19.762Z,89.90
2022-11-26T06:41:39.996Z,89.90
2022-11-26T06:43:00.446Z,89.90
2022-11-26T06:44:20.812Z,89.90
2022-11-26T06:45:42.539Z,89.90
2022-11-26T06:47:02.802Z,89.90
2022-11-26T06:48:24.357Z,89.90
2022-11-26T06:49:44.662Z,89.90
2022-11-26T06:51:06.112Z,89.90
2022-11-26T06:52:26.791Z,89.90
2022-11-26T06:53:47.424Z,89.90
2022-11-26T06:55:08.811Z,89.90
2022-11-26T06:56:29.196Z,89.90
2022-11-26T06:57:50.236Z,89.90
2022-11-26T06:59:10.866Z,89.90
2022-11-26T07:00:31.281Z,89.90
2022-11-26T07:01:53.276Z,89.90
2022-11-26T07:03:14.048Z,89.90
2022-11-26T07:04:34.721Z,89.90
2022-11-26T07:05:55.345Z,89.90
2022-11-26T07:07:16.346Z,89.90
2022-11-26T07:08:36.992Z,89.90
2022-11-26T07:09:57.646Z,89.80
2022-11-26T07:11:19.963Z,89.90
2022-11-26T07:12:53.808Z,89.90
2022-11-26T07:14:14.308Z,89.70
2022-11-26T07:15:34.637Z,89.60
2022-11-26T07:16:57.189Z,89.60
2022-11-26T07:18:17.397Z,89.40
2022-11-26T07:19:37.804Z,89.50
2022-11-26T07:21:03.830Z,89.50
2022-11-26T07:22:24.472Z,89.70
2022-11-26T07:23:44.787Z,89.80
2022-11-26T07:25:10.829Z,89.90
2022-11-26T07:26:33.090Z,89.90
2022-11-26T07:27:53.661Z,89.90
2022-11-26T07:29:13.922Z,89.80
2022-11-26T07:30:34.285Z,89.60
2022-11-26T07:31:54.828Z,89.70
2022-11-26T07:33:16.637Z,89.90
2022-11-26T07:34:37.513Z,89.80
2022-11-26T07:35:59.089Z,89.70
2022-11-26T07:37:19.523Z,89.20
2022-11-26T07:38:39.929Z,89.00
2022-11-26T07:40:00.651Z,89.00
2022-11-26T07:41:21.233Z,89.20
2022-11-26T07:42:41.983Z,89.20
2022-11-26T07:44:02.405Z,89.20
2022-11-26T07:45:22.809Z,89.10
2022-11-26T07:46:43.270Z,89.10
2022-11-26T07:48:03.791Z,89.20
2022-11-26T07:49:25.617Z,89.30
2022-11-26T07:50:46.397Z,89.40
2022-11-26T07:52:06.996Z,89.20
2022-11-26T07:53:28.392Z,89.00
2022-11-26T07:54:48.839Z,89.10
2022-11-26T07:56:09.494Z,89.00
2022-11-26T07:57:30.141Z,89.20
2022-11-26T07:58:51.148Z,89.10
2022-11-26T08:00:12.686Z,89.10
2022-11-26T08:01:33.814Z,89.50
2022-11-26T08:02:54.476Z,89.10
2022-11-26T08:04:15.227Z,89.20
2022-11-26T08:05:40.957Z,89.40
2022-11-26T08:07:01.447Z,89.40
2022-11-26T08:08:21.858Z,89.30
2022-11-26T08:09:42.434Z,89.40
2022-11-26T08:11:03.691Z,89.40
2022-11-26T08:12:24.659Z,89.40
2022-11-26T08:13:45.446Z,89.30
2022-11-26T08:15:06.608Z,89.40
2022-11-26T08:16:28.778Z,89.40
2022-11-26T08:17:49.938Z,89.30
2022-11-26T08:19:13.010Z,89.50
2022-11-26T08:20:33.812Z,89.60
2022-11-26T08:21:55.677Z,89.60
2022-11-26T08:23:15.840Z,89.60
2022-11-26T08:24:36.727Z,89.70
2022-11-26T08:27:38.072Z,89.50
2022-11-26T08:28:59.723Z,89.90
2022-11-26T08:30:20.233Z,89.80
2022-11-26T08:31:45.642Z,89.70
2022-11-26T08:33:06.764Z,89.90
2022-11-26T08:34:27.175Z,89.70
2022-11-26T08:36:06.219Z,89.30
2022-11-26T08:37:29.215Z,89.30
2022-11-26T08:38:49.748Z,89.50
2022-11-26T08:40:13.866Z,89.90
2022-11-26T08:41:34.424Z,89.90
2022-11-26T08:42:54.668Z,89.90
2022-11-26T08:44:15.591Z,89.90
2022-11-26T08:45:35.862Z,89.90
2022-11-26T08:46:56.204Z,89.90
2022-11-26T08:48:16.429Z,89.90
2022-11-26T08:49:37.018Z,89.90
2022-11-26T08:50:58.217Z,89.90
2022-11-26T08:52:18.552Z,89.90
2022-11-26T08:53:40.494Z,89.90
2022-11-26T08:55:01.061Z,89.90
2022-11-26T08:56:21.681Z,89.80
2022-11-26T08:57:42.911Z,89.80
2022-11-26T08:59:03.676Z,89.70
2022-11-26T09:00:24.379Z,89.80
2022-11-26T09:01:45.016Z,89.70
2022-11-26T09:03:05.596Z,89.80
2022-11-26T09:04:25.956Z,89.80
2022-11-26T09:05:46.659Z,89.70
2022-11-26T09:07:07.447Z,89.70
2022-11-26T09:08:27.757Z,89.80
2022-11-26T09:09:49.661Z,89.80
2022-11-26T09:11:10.278Z,89.70
2022-11-26T09:12:31.424Z,89.40
2022-11-26T09:13:52.208Z,89.50
2022-11-26T09:15:12.999Z,89.80
2022-11-26T09:16:33.649Z,89.40
2022-11-26T09:17:54.032Z,89.70
2022-11-26T09:19:15.094Z,89.60
2022-11-26T09:20:35.346Z,89.90
2022-11-26T09:21:56.171Z,89.90
2022-11-26T09:23:16.446Z,89.90
2022-11-26T09:24:36.933Z,89.90
2022-11-26T09:25:59.297Z,89.70
2022-11-26T09:27:19.677Z,89.70
2022-11-26T09:28:43.717Z,89.90
2022-11-26T09:30:05.172Z,89.90
2022-11-26T09:31:26.153Z,89.50
2022-11-26T09:32:46.632Z,89.30
2022-11-26T09:34:07.264Z,89.00
2022-11-26T09:35:27.957Z,88.90
2022-11-26T09:36:48.250Z,89.30
2022-11-26T09:38:08.850Z,89.50
2022-11-26T09:39:29.612Z,89.70
2022-11-26T09:40:54.972Z,89.70
2022-11-26T09:42:26.192Z,89.50
2022-11-26T09:43:59.216Z,89.20
2022-11-26T09:45:33.043Z,88.60
2022-11-26T09:47:12.395Z,88.80
2022-11-26T09:48:34.126Z,89.20
2022-11-26T09:49:59.606Z,89.40
2022-11-26T09:51:20.821Z,88.90
2022-11-26T09:52:46.403Z,89.20
2022-11-26T09:54:06.808Z,89.20
2022-11-26T09:55:30.303Z,89.30
2022-11-26T09:56:54.839Z,89.60
2022-11-26T09:58:25.321Z,89.40
2022-11-26T09:59:48.661Z,88.90
2022-11-26T10:01:16.235Z,88.90
2022-11-26T10:02:38.809Z,89.20
2022-11-26T10:03:59.792Z,89.10
2022-11-26T10:05:23.323Z,89.20
2022-11-26T10:06:51.628Z,89.50
2022-11-26T10:08:28.863Z,89.80
2022-11-26T10:09:57.040Z,89.60
2022-11-26T10:11:21.859Z,89.50
2022-11-26T10:13:17.468Z,89.70
2022-11-26T10:14:47.813Z,89.60
2022-11-26T10:16:14.853Z,89.40
2022-11-26T10:17:40.888Z,89.50
2022-11-26T10:19:04.889Z,89.50
2022-11-26T10:20:51.888Z,89.20
2022-11-26T10:22:20.330Z,89.00
2022-11-26T10:23:43.138Z,89.10
2022-11-26T10:25:11.104Z,88.70
2022-11-26T10:26:34.480Z,88.70
2022-11-26T10:27:56.020Z,88.60
2022-11-26T10:29:18.601Z,88.80
2022-11-26T10:30:40.271Z,88.80
2022-11-26T10:32:10.135Z,88.70
2022-11-26T10:33:34.060Z,88.80
2022-11-26T10:34:56.775Z,88.70
2022-11-26T10:36:22.152Z,87.90
2022-11-26T10:37:42.656Z,87.90
2022-11-26T10:39:03.875Z,88.40
2022-11-26T10:40:25.906Z,88.90
2022-11-26T10:41:47.145Z,89.00
2022-11-26T10:43:13.914Z,88.90
2022-11-26T10:44:37.151Z,88.50
2022-11-26T10:45:59.331Z,88.20
2022-11-26T10:47:26.220Z,87.80
2022-11-26T10:48:46.697Z,88.00
2022-11-26T10:50:46.090Z,88.00
2022-11-26T10:52:01.887Z,87.70
2022-11-26T10:53:23.189Z,87.70
2022-11-26T10:54:43.904Z,88.10
2022-11-26T10:56:06.419Z,87.90
2022-11-26T10:57:26.676Z,88.10
2022-11-26T10:58:48.477Z,87.80
2022-11-26T11:00:36.596Z,88.10
2022-11-26T11:02:02.463Z,88.00
2022-11-26T11:03:44.540Z,87.60
2022-11-26T11:05:05.781Z,87.90
2022-11-26T11:06:35.012Z,87.90
2022-11-26T11:07:56.095Z,87.80
2022-11-26T11:09:28.557Z,87.50
2022-11-26T11:10:56.896Z,86.90
2022-11-26T11:12:20.531Z,87.10
2022-11-26T11:13:42.793Z,87.90
2022-11-26T11:15:23.001Z,87.60
2022-11-26T11:16:44.497Z,87.80
2022-11-26T11:18:13.040Z,86.90
2022-11-26T11:19:33.981Z,86.60
2022-11-26T11:20:55.822Z,87.00
2022-11-26T11:22:18.640Z,86.80
2022-11-26T11:25:24.109Z,87.10
2022-11-26T11:26:45.821Z,87.20
2022-11-26T11:28:12.259Z,87.00
2022-11-26T11:29:34.792Z,87.10
2022-11-26T11:31:13.812Z,86.90
2022-11-26T11:32:36.780Z,87.00
2022-11-26T11:34:19.246Z,87.20
2022-11-26T11:35:39.808Z,87.20
2022-11-26T11:37:01.508Z,87.60
2022-11-26T11:38:24.150Z,87.40
2022-11-26T11:39:44.779Z,87.60
2022-11-26T11:41:13.606Z,87.60
2022-11-26T11:42:34.050Z,87.60
2022-11-26T11:44:03.848Z,87.80
2022-11-26T11:45:33.182Z,87.10
2022-11-26T11:47:09.246Z,86.80
2022-11-26T11:48:37.392Z,87.00
2022-11-26T11:50:12.244Z,86.90
2022-11-26T11:51:39.256Z,87.00
2022-11-26T11:53:15.868Z,86.70
2022-11-26T11:54:45.612Z,87.10
2022-11-26T11:56:19.357Z,87.10
2022-11-26T11:57:52.939Z,86.50
2022-11-26T11:59:31.953Z,86.30
2022-11-26T12:00:54.564Z,86.60
2022-11-26T12:02:28.839Z,86.40
2022-11-26T12:04:17.927Z,86.50
2022-11-26T12:05:54.753Z,85.90
2022-11-26T12:07:30.322Z,86.60
2022-11-26T12:09:00.737Z,86.50
2022-11-26T12:10:25.438Z,86.00
2022-11-26T12:11:53.510Z,85.20
2022-11-26T12:13:15.537Z,84.20
2022-11-26T12:14:36.289Z,84.90
2022-11-26T12:16:01.830Z,84.50
2022-11-26T12:17:33.092Z,85.20
2022-11-26T12:18:58.146Z,86.00
2022-11-26T12:20:23.522Z,85.30
2022-11-26T12:21:48.169Z,85.00
2022-11-26T12:23:24.392Z,84.00
2022-11-26T12:24:48.125Z,84.80
2022-11-26T12:26:13.278Z,83.40
2022-11-26T12:27:37.667Z,83.10
2022-11-26T12:29:02.115Z,82.80
2022-11-26T12:30:25.244Z,83.10
2022-11-26T12:31:48.807Z,83.30
2022-11-26T12:33:13.451Z,83.00
2022-11-26T12:34:37.150Z,83.60
2022-11-26T12:36:00.784Z,83.70
2022-11-26T12:37:25.059Z,83.10
2022-11-26T12:38:49.332Z,83.60
2022-11-26T12:40:19.401Z,84.20
2022-11-26T12:41:43.922Z,84.50
2022-11-26T12:43:09.766Z,84.20
2022-11-26T12:44:32.782Z,84.40
2022-11-26T12:45:56.711Z,84.10
2022-11-26T12:47:21.641Z,84.10
2022-11-26T12:48:45.711Z,84.20
2022-11-26T12:50:15.496Z,83.90
2022-11-26T12:51:41.134Z,83.80
2022-11-26T12:53:23.752Z,83.10
2022-11-26T12:54:48.886Z,82.80
2022-11-26T12:56:16.399Z,83.40
2022-11-26T12:57:39.331Z,82.10
2022-11-26T12:59:03.468Z,82.70
2022-11-26T13:00:32.725Z,82.50
2022-11-26T13:01:57.007Z,82.90
2022-11-26T13:03:18.757Z,82.10
2022-11-26T13:04:39.485Z,81.40
2022-11-26T13:06:04.789Z,81.70
2022-11-26T13:07:40.886Z,82.00
2022-11-26T13:09:12.100Z,81.20
2022-11-26T13:10:53.139Z,80.70
2022-11-26T13:12:18.076Z,80.70
2022-11-26T13:13:43.955Z,79.90
2022-11-26T13:15:07.309Z,79.30
2022-11-26T13:16:31.701Z,79.60
2022-11-26T13:17:52.437Z,78.80
2022-11-26T13:19:22.019Z,78.90
2022-11-26T13:20:54.308Z,78.90
2022-11-26T13:22:23.787Z,78.90
2022-11-26T13:23:56.003Z,79.00
2022-11-26T13:25:49.813Z,79.40
2022-11-26T13:27:27.244Z,79.40
2022-11-26T13:28:59.717Z,78.70
2022-11-26T13:30:21.170Z,78.70
2022-11-26T13:31:55.079Z,79.10
2022-11-26T13:33:49.603Z,78.70
2022-11-26T13:35:18.345Z,80.20
2022-11-26T13:36:57.687Z,79.70
2022-11-26T13:38:21.411Z,79.70
2022-11-26T13:40:01.766Z,80.10
2022-11-26T13:41:33.269Z,80.10
2022-11-26T13:42:59.821Z,80.20
2022-11-26T13:45:02.505Z,80.50
2022-11-26T13:46:25.101Z,79.50
2022-11-26T13:47:47.815Z,79.40
2022-11-26T13:49:11.828Z,79.80
2022-11-26T13:50:35.223Z,78.70
2022-11-26T13:51:59.227Z,78.90
2022-11-26T13:53:26.577Z,78.50
2022-11-26T13:54:50.465Z,79.70
2022-11-26T13:56:11.425Z,79.80
2022-11-26T13:57:39.956Z,79.10
2022-11-26T13:59:05.817Z,79.10
2022-11-26T14:00:28.789Z,78.90
2022-11-26T14:01:49.649Z,78.70
2022-11-26T14:03:44.030Z,79.10
2022-11-26T14:05:06.773Z,79.50
2022-11-26T14:06:27.099Z,78.20
2022-11-26T14:07:47.468Z,77.20
2022-11-26T14:09:45.729Z,77.90
2022-11-26T14:11:06.887Z,78.00
2022-11-26T14:13:00.339Z,77.30
2022-11-26T14:14:36.912Z,78.00
2022-11-26T14:15:59.927Z,77.70
2022-11-26T14:17:25.103Z,77.00
2022-11-26T14:18:57.027Z,77.70
2022-11-26T14:20:17.028Z,77.70
2022-11-26T14:21:58.584Z,78.00
2022-11-26T14:23:43.614Z,77.50
2022-11-26T14:25:09.620Z,76.80
2022-11-26T14:26:32.409Z,77.10
2022-11-26T14:27:54.945Z,77.30
2022-11-26T14:29:15.844Z,77.10
2022-11-26T14:30:37.885Z,76.80
2022-11-26T14:31:58.263Z,76.40
2022-11-26T14:33:24.113Z,75.90
2022-11-26T14:34:49.342Z,76.20
2022-11-26T14:36:19.520Z,76.30
2022-11-26T14:37:51.254Z,76.30
2022-11-26T14:39:15.739Z,77.00
2022-11-26T14:40:38.027Z,76.90
2022-11-26T14:42:05.651Z,76.60
2022-11-26T14:43:26.865Z,77.50
2022-11-26T14:44:47.174Z,78.10
2022-11-26T14:46:13.452Z,77.60
2022-11-26T14:47:33.929Z,77.70
2022-11-26T14:48:59.661Z,78.30
2022-11-26T14:50:23.972Z,78.20
2022-11-26T14:51:44.923Z,78.50
2022-11-26T14:53:06.155Z,79.10
2022-11-26T14:54:30.654Z,78.50
2022-11-26T14:55:52.196Z,78.70
2022-11-26T14:57:15.096Z,78.60
2022-11-26T14:58:38.156Z,79.00
2022-11-26T15:00:00.047Z,79.20
2022-11-26T15:01:23.320Z,80.20
2022-11-26T15:02:45.404Z,79.90
2022-11-26T15:04:07.205Z,79.50
2022-11-26T15:05:29.249Z,79.50
2022-11-26T15:06:49.893Z,79.80
2022-11-26T15:08:16.720Z,79.80
2022-11-26T15:09:37.440Z,79.60
2022-11-26T15:11:02.663Z,79.90
2022-11-26T15:12:23.145Z,80.30
2022-11-26T15:13:45.243Z,79.90
2022-11-26T15:15:06.812Z,80.30
2022-11-26T15:16:32.279Z,81.40
2022-11-26T15:17:55.919Z,81.30
2022-11-26T15:19:16.449Z,80.90
2022-11-26T15:20:36.693Z,80.90
2022-11-26T15:21:57.044Z,81.60
2022-11-26T15:23:18.998Z,81.20
2022-11-26T15:24:40.714Z,81.00
2022-11-26T15:26:03.137Z,81.20
2022-11-26T15:27:28.163Z,81.20
2022-11-26T15:28:49.474Z,81.00
2022-11-26T15:30:19.857Z,80.90
2022-11-26T15:31:42.735Z,80.90
2022-11-26T15:33:04.433Z,81.40
2022-11-26T15:34:25.013Z,81.40
2022-11-26T15:35:45.327Z,81.20
2022-11-26T15:37:06.401Z,81.20
2022-11-26T15:38:28.708Z,81.50
2022-11-26T15:40:07.496Z,81.80
2022-11-26T15:41:28.149Z,81.70
2022-11-26T15:42:49.914Z,81.60
2022-11-26T15:44:20.244Z,81.80
2022-11-26T15:45:41.157Z,81.60
2022-11-26T15:47:03.102Z,81.40
2022-11-26T15:48:50.087Z,81.30
2022-11-26T15:50:19.000Z,81.40
2022-11-26T15:51:42.425Z,82.60
2022-11-26T15:53:05.821Z,81.70
2022-11-26T15:54:43.338Z,81.80
2022-11-26T15:56:04.841Z,81.80
2022-11-26T15:57:28.353Z,81.40
2022-11-26T15:58:52.212Z,81.00
2022-11-26T16:00:21.444Z,81.40
2022-11-26T16:01:44.624Z,81.10
2022-11-26T16:03:33.907Z,81.30
2022-11-26T16:04:55.323Z,81.60
2022-11-26T16:06:27.300Z,81.60
2022-11-26T16:07:56.883Z,81.60
2022-11-26T16:09:27.953Z,81.50
2022-11-26T16:10:54.931Z,81.40
2022-11-26T16:12:30.410Z,81.00
2022-11-26T16:13:51.019Z,80.80
2022-11-26T16:15:22.201Z,81.00
2022-11-26T16:16:42.491Z,81.40
2022-11-26T16:18:11.860Z,80.90
2022-11-26T16:19:33.020Z,80.90
2022-11-26T16:21:02.335Z,80.70
2022-11-26T16:22:28.301Z,80.60
2022-11-26T16:23:52.166Z,80.40
2022-11-26T16:25:20.523Z,81.20
2022-11-26T16:26:53.493Z,81.10
2022-11-26T16:28:15.064Z,80.80
2022-11-26T16:29:35.549Z,80.70
2022-11-26T16:30:56.290Z,81.00
2022-11-26T16:32:17.656Z,81.20
2022-11-26T16:33:39.988Z,80.90
2022-11-26T16:35:12.262Z,81.10
2022-11-26T16:36:42.296Z,81.20
2022-11-26T16:38:02.820Z,81.00
2022-11-26T16:39:27.427Z,81.40
2022-11-26T16:40:51.032Z,81.40
2022-11-26T16:42:14.273Z,81.00
2022-11-26T16:43:34.873Z,81.50
2022-11-26T16:44:57.983Z,81.30
2022-11-26T16:46:22.284Z,81.60
2022-11-26T16:47:45.562Z,81.90
2022-11-26T16:49:07.377Z,81.60
2022-11-26T16:50:28.179Z,81.00
2022-11-26T16:51:48.661Z,81.20
2022-11-26T16:53:09.640Z,81.50
2022-11-26T16:54:30.022Z,81.40
2022-11-26T16:55:50.851Z,81.40
2022-11-26T16:57:14.468Z,81.60
2022-11-26T16:58:36.496Z,81.80
2022-11-26T17:00:02.616Z,81.50
2022-11-26T17:01:22.853Z,81.90
2022-11-26T17:02:43.803Z,81.50
2022-11-26T17:04:04.158Z,81.70
2022-11-26T17:05:26.097Z,82.40
2022-11-26T17:06:46.963Z,82.50
2022-11-26T17:08:11.111Z,82.10
2022-11-26T17:09:31.815Z,82.60
2022-11-26T17:10:52.759Z,82.80
2022-11-26T17:12:17.364Z,82.90
2022-11-26T17:13:37.596Z,82.50
2022-11-26T17:14:58.159Z,82.70
2022-11-26T17:16:20.628Z,82.60
2022-11-26T17:17:41.812Z,82.60
2022-11-26T17:19:02.377Z,82.30
2022-11-26T17:20:24.153Z,82.30
2022-11-26T17:21:45.853Z,82.60
2022-11-26T17:23:06.472Z,82.50
2022-11-26T17:24:30.000Z,82.90
2022-11-26T17:25:53.761Z,82.70
2022-11-26T17:27:16.773Z,82.80
2022-11-26T17:28:37.223Z,82.70
2022-11-26T17:29:57.596Z,82.60
2022-11-26T17:31:18.238Z,82.50
2022-11-26T17:32:38.745Z,82.80
2022-11-26T17:33:59.236Z,82.50
2022-11-26T17:35:19.932Z,82.50
2022-11-26T17:36:40.356Z,82.40
2022-11-26T17:38:02.621Z,82.70
2022-11-26T17:39:22.948Z,83.10
2022-11-26T17:40:43.551Z,82.80
2022-11-26T17:42:04.240Z,83.10
2022-11-26T17:43:24.482Z,83.10
2022-11-26T17:44:45.028Z,82.80
2022-11-26T17:46:08.697Z,82.60
2022-11-26T17:47:29.397Z,82.90
2022-11-26T17:48:54.420Z,82.60
2022-11-26T17:50:21.406Z,82.50
2022-11-26T17:51:42.018Z,82.70
2022-11-26T17:53:03.601Z,83.20
2022-11-26T17:54:24.256Z,83.10
2022-11-26T17:55:44.910Z,83.40
2022-11-26T17:57:06.389Z,83.50
2022-11-26T17:58:26.932Z,83.40
2022-11-26T17:59:47.356Z,83.30
2022-11-26T18:01:08.062Z,83.10
2022-11-26T18:02:28.950Z,82.90